Terminal Aerodrome Forecast
Issued by NWS

Current Version | Previous Version | Graphics & Text | Print | Product List | Glossary On
Versions: 1 2 3 4 5 6 7 8 9 10 11 12 13 14 15 16 17 18 19 20 21 22 23 24 25 26
000
FTUS41 KPBZ 011700
TAFHLG
TAF
KHLG 011730Z 0118/0218 21009KT 2SM -SN BR SCT005 OVC009
      TEMPO 0118/0120 3/4SM -SN OVC005
     FM012100 23008KT 3SM -SNRA SCT008 OVC012
      TEMPO 0121/0123 2SM -SNRA OVC008
     FM020300 26006KT 3SM -SN OVC008
     FM020700 28010KT 6SM -SN OVC015
     FM021200 28008KT P6SM OVC025=

USA.gov is the U.S. government's official web portal to all federal, state and local government web resources and services.